createdAt,value
2023-11-15T00:01:47.462Z,0.60
2023-11-15T00:04:14.918Z,0.80
2023-11-15T00:06:41.620Z,0.80
2023-11-15T00:09:08.246Z,0.60
2023-11-15T00:11:35.254Z,0.70
2023-11-15T00:14:01.907Z,1.00
2023-11-15T00:16:28.498Z,0.70
2023-11-15T00:18:55.597Z,0.70
2023-11-15T00:21:22.209Z,0.90
2023-11-15T00:23:48.712Z,0.70
2023-11-15T00:26:15.398Z,0.73
2023-11-15T00:28:41.932Z,0.70
2023-11-15T00:31:08.590Z,0.60
2023-11-15T00:33:35.135Z,0.67
2023-11-15T00:36:01.868Z,0.60
2023-11-15T00:38:28.600Z,0.67
2023-11-15T00:40:55.579Z,0.70
2023-11-15T00:43:22.331Z,0.90
2023-11-15T00:45:52.134Z,1.00
2023-11-15T00:48:18.837Z,0.70
2023-11-15T00:50:45.920Z,1.00
2023-11-15T00:53:14.146Z,0.70
2023-11-15T00:55:40.959Z,0.60
2023-11-15T00:58:10.276Z,0.80
2023-11-15T01:00:45.925Z,0.80
2023-11-15T01:03:13.737Z,0.70
2023-11-15T01:05:40.460Z,0.70
2023-11-15T01:08:07.006Z,0.67
2023-11-15T01:10:33.652Z,0.70
2023-11-15T01:13:00.236Z,0.80
2023-11-15T01:15:27.341Z,0.77
2023-11-15T01:17:58.241Z,0.90
2023-11-15T01:20:26.265Z,0.90
2023-11-15T01:22:52.899Z,0.80
2023-11-15T01:25:21.756Z,0.80
2023-11-15T01:27:48.371Z,0.90
2023-11-15T01:30:15.512Z,0.80
2023-11-15T01:32:42.193Z,0.77
2023-11-15T01:35:09.610Z,0.80
2023-11-15T01:37:36.094Z,1.00
2023-11-15T01:40:02.900Z,0.83
2023-11-15T01:42:29.530Z,0.80
2023-11-15T01:44:56.147Z,0.70
2023-11-15T01:47:22.681Z,0.70
2023-11-15T01:49:49.366Z,0.77
2023-11-15T01:52:16.436Z,0.87
2023-11-15T01:54:43.257Z,0.60
2023-11-15T01:57:09.877Z,0.70
2023-11-15T01:59:36.455Z,0.50
2023-11-15T02:02:03.038Z,0.60
2023-11-15T02:04:29.738Z,0.60
2023-11-15T02:06:56.347Z,0.50
2023-11-15T02:09:23.307Z,0.50
2023-11-15T02:11:50.083Z,0.63
2023-11-15T02:14:16.846Z,0.60
2023-11-15T02:16:46.115Z,0.60
2023-11-15T02:19:13.330Z,0.70
2023-11-15T02:21:40.030Z,0.60
2023-11-15T02:24:07.259Z,0.60
2023-11-15T02:26:33.907Z,0.60
2023-11-15T02:29:01.189Z,0.50
2023-11-15T02:31:27.823Z,0.50
2023-11-15T02:33:54.688Z,0.50
2023-11-15T02:36:21.270Z,0.60
2023-11-15T02:38:48.295Z,0.50
2023-11-15T02:41:15.005Z,0.57
2023-11-15T02:43:41.798Z,0.70
2023-11-15T02:46:08.816Z,0.70
2023-11-15T02:48:36.008Z,0.77
2023-11-15T02:51:03.280Z,0.60
2023-11-15T02:53:29.949Z,0.63
2023-11-15T02:55:56.749Z,0.70
2023-11-15T02:58:23.445Z,0.70
2023-11-15T03:00:50.592Z,0.70
2023-11-15T03:03:17.468Z,0.50
2023-11-15T03:05:44.794Z,0.63
2023-11-15T03:08:11.562Z,0.50
2023-11-15T03:10:38.869Z,0.73
2023-11-15T03:13:05.610Z,0.57
2023-11-15T03:15:32.229Z,0.70
2023-11-15T03:17:59.232Z,0.80
2023-11-15T03:20:26.351Z,0.50
2023-11-15T03:22:53.105Z,0.70
2023-11-15T03:25:19.902Z,0.70
2023-11-15T03:27:46.554Z,0.73
2023-11-15T03:30:16.743Z,0.60
2023-11-15T03:32:46.858Z,0.90
2023-11-15T03:35:13.899Z,0.70
2023-11-15T03:37:42.798Z,0.60
2023-11-15T03:40:12.490Z,0.60
2023-11-15T03:42:39.157Z,0.90
2023-11-15T03:45:06.683Z,0.70
2023-11-15T03:47:33.893Z,0.80
2023-11-15T03:50:01.201Z,0.60
2023-11-15T03:52:27.906Z,0.70
2023-11-15T03:54:54.441Z,0.83
2023-11-15T03:57:21.532Z,0.77
2023-11-15T03:59:48.232Z,0.70
2023-11-15T04:02:16.183Z,0.50
2023-11-15T04:04:42.851Z,0.77
2023-11-15T04:07:09.662Z,0.70
2023-11-15T04:09:36.761Z,0.77
2023-11-15T04:12:03.733Z,0.77
2023-11-15T04:14:30.286Z,0.70
2023-11-15T04:16:56.917Z,0.63
2023-11-15T04:19:23.696Z,0.70
2023-11-15T04:22:05.314Z,1.00
2023-11-15T04:24:39.743Z,0.83
2023-11-15T04:27:06.991Z,0.73
2023-11-15T04:29:33.585Z,0.80
2023-11-15T04:32:00.194Z,0.80
2023-11-15T04:34:27.149Z,0.60
2023-11-15T04:36:53.731Z,0.80
2023-11-15T04:39:20.401Z,0.70
2023-11-15T04:41:48.633Z,0.70
2023-11-15T04:44:15.160Z,0.70
2023-11-15T04:46:41.669Z,0.90
2023-11-15T04:49:08.312Z,0.70
2023-11-15T04:51:34.873Z,0.97
2023-11-15T04:54:01.563Z,0.70
2023-11-15T04:56:28.171Z,1.10
2023-11-15T04:58:54.700Z,0.90
2023-11-15T05:01:21.307Z,0.80
2023-11-15T05:03:48.655Z,1.10
2023-11-15T05:06:15.326Z,0.97
2023-11-15T05:08:41.909Z,0.80
2023-11-15T05:11:08.454Z,0.80
2023-11-15T05:13:34.929Z,0.90
2023-11-15T05:16:01.672Z,1.10
2023-11-15T05:18:28.640Z,2.93
2023-11-15T05:20:55.379Z,2.43
2023-11-15T05:23:21.886Z,4.70
2023-11-15T05:25:48.403Z,1.60
2023-11-15T05:28:15.960Z,2.23
2023-11-15T05:30:43.561Z,7.37
2023-11-15T05:33:10.268Z,5.07
2023-11-15T05:35:37.139Z,5.40
2023-11-15T05:38:03.787Z,1.47
2023-11-15T05:40:30.260Z,2.40
2023-11-15T05:42:56.893Z,1.33
2023-11-15T05:45:23.387Z,5.50
2023-11-15T05:47:50.035Z,2.27
2023-11-15T05:50:16.713Z,2.17
2023-11-15T05:52:43.425Z,2.33
2023-11-15T05:55:12.297Z,1.70
2023-11-15T05:57:38.914Z,1.10
2023-11-15T06:00:15.198Z,1.43
2023-11-15T06:02:42.001Z,1.03
2023-11-15T06:05:09.075Z,1.13
2023-11-15T06:07:35.825Z,1.47
2023-11-15T06:10:02.333Z,1.30
2023-11-15T06:12:29.758Z,1.17
2023-11-15T06:14:56.629Z,1.50
2023-11-15T06:17:23.926Z,1.70
2023-11-15T06:19:58.017Z,1.40
2023-11-15T06:22:28.537Z,1.43
2023-11-15T06:24:55.035Z,1.73
2023-11-15T06:27:21.646Z,1.70
2023-11-15T06:29:56.046Z,1.30
2023-11-15T06:32:24.525Z,1.37
2023-11-15T06:34:51.402Z,1.23
2023-11-15T06:37:19.160Z,1.50
2023-11-15T06:39:45.796Z,1.50
2023-11-15T06:42:13.763Z,1.50
2023-11-15T06:44:40.708Z,1.60
2023-11-15T06:47:09.997Z,1.63
2023-11-15T06:49:37.452Z,1.73
2023-11-15T06:52:04.589Z,1.50
2023-11-15T06:54:31.793Z,1.70
2023-11-15T06:56:58.464Z,1.50
2023-11-15T06:59:25.252Z,1.60
2023-11-15T07:01:52.470Z,1.60
2023-11-15T07:04:20.906Z,1.70
2023-11-15T07:06:48.009Z,1.17
2023-11-15T07:09:19.534Z,1.20
2023-11-15T07:11:47.963Z,1.40
2023-11-15T07:14:17.996Z,1.27
2023-11-15T07:16:56.439Z,1.37
2023-11-15T07:19:25.823Z,1.10
2023-11-15T07:21:56.194Z,1.27
2023-11-15T07:24:22.946Z,1.40
2023-11-15T07:26:49.690Z,1.07
2023-11-15T07:29:20.671Z,0.90
2023-11-15T07:31:54.435Z,0.97
2023-11-15T07:34:25.075Z,1.13
2023-11-15T07:36:52.470Z,1.23
2023-11-15T07:39:20.390Z,1.00
2023-11-15T07:41:47.386Z,1.40
2023-11-15T07:44:17.344Z,1.13
2023-11-15T07:46:47.633Z,1.17
2023-11-15T07:49:19.839Z,1.40
2023-11-15T07:51:46.767Z,1.87
2023-11-15T07:54:15.015Z,1.73
2023-11-15T07:56:42.299Z,2.10
2023-11-15T07:59:09.018Z,1.40
2023-11-15T08:01:36.954Z,1.40
2023-11-15T08:04:03.862Z,1.40
2023-11-15T08:06:30.436Z,1.27
2023-11-15T08:08:58.085Z,1.20
2023-11-15T08:11:25.492Z,1.17
2023-11-15T08:13:54.117Z,1.00
2023-11-15T08:16:24.162Z,0.90
2023-11-15T08:18:51.088Z,0.63
2023-11-15T08:21:17.713Z,0.80
2023-11-15T08:23:44.235Z,0.50
2023-11-15T08:26:10.943Z,0.67
2023-11-15T08:28:37.791Z,0.80
2023-11-15T08:31:05.986Z,0.70
2023-11-15T08:33:33.373Z,0.77
2023-11-15T08:36:00.464Z,0.50
2023-11-15T08:38:27.543Z,0.50
2023-11-15T08:40:56.683Z,0.60
2023-11-15T08:43:23.628Z,0.80
2023-11-15T08:45:50.308Z,0.63
2023-11-15T08:48:19.028Z,0.87
2023-11-15T08:50:46.033Z,0.60
2023-11-15T08:53:12.817Z,0.83
2023-11-15T08:55:41.909Z,0.70
2023-11-15T08:58:08.466Z,0.90
2023-11-15T09:00:37.666Z,0.80
2023-11-15T09:03:05.474Z,0.73
2023-11-15T09:05:32.281Z,0.70
2023-11-15T09:07:58.961Z,0.80
2023-11-15T09:10:28.287Z,0.70
2023-11-15T09:12:59.506Z,0.77
2023-11-15T09:15:26.280Z,0.80
2023-11-15T09:17:53.484Z,1.30
2023-11-15T09:20:27.085Z,0.90
2023-11-15T09:22:59.041Z,0.70
2023-11-15T09:25:28.210Z,0.67
2023-11-15T09:27:56.698Z,0.70
2023-11-15T09:30:26.259Z,0.70
2023-11-15T09:32:53.476Z,0.67
2023-11-15T09:35:29.404Z,0.77
2023-11-15T09:37:59.675Z,0.60
2023-11-15T09:40:27.243Z,1.00
2023-11-15T09:42:55.517Z,0.60
2023-11-15T09:45:24.991Z,0.50
2023-11-15T09:47:52.807Z,0.60
2023-11-15T09:50:27.917Z,0.80
2023-11-15T09:52:56.639Z,0.90
2023-11-15T09:55:24.880Z,0.73
2023-11-15T09:57:53.341Z,0.90
2023-11-15T10:00:22.981Z,0.80
2023-11-15T10:02:54.184Z,0.60
2023-11-15T10:05:28.184Z,0.70
2023-11-15T10:08:12.839Z,0.70
2023-11-15T10:10:43.050Z,0.60
2023-11-15T10:13:17.482Z,0.40
2023-11-15T10:15:47.943Z,0.60
2023-11-15T10:18:16.395Z,0.80
2023-11-15T10:20:44.320Z,0.70
2023-11-15T10:23:12.930Z,0.50
2023-11-15T10:25:52.508Z,0.50
2023-11-15T10:28:22.425Z,0.50
2023-11-15T10:31:20.236Z,0.40
2023-11-15T10:33:52.126Z,0.40
2023-11-15T10:36:23.504Z,0.40
2023-11-15T10:38:55.964Z,0.57
2023-11-15T10:41:23.585Z,0.50
2023-11-15T10:43:52.615Z,0.60
2023-11-15T10:46:30.165Z,0.40
2023-11-15T10:48:58.564Z,0.40
2023-11-15T10:51:30.356Z,0.60
2023-11-15T10:53:57.733Z,0.50
2023-11-15T10:56:25.692Z,0.50
2023-11-15T10:58:53.983Z,0.70
2023-11-15T11:01:20.873Z,0.70
2023-11-15T11:03:53.325Z,0.50
2023-11-15T11:06:52.601Z,0.70
2023-11-15T11:09:22.711Z,0.60
2023-11-15T11:12:12.611Z,0.70
2023-11-15T11:14:39.746Z,0.53
2023-11-15T11:17:31.306Z,0.80
2023-11-15T11:20:00.193Z,0.80
2023-11-15T11:22:27.056Z,0.80
2023-11-15T11:25:08.818Z,0.67
2023-11-15T11:27:37.891Z,0.90
2023-11-15T11:30:16.802Z,0.70
2023-11-15T11:32:45.872Z,0.87
2023-11-15T11:35:14.900Z,0.60
2023-11-15T11:37:56.897Z,0.90
2023-11-15T11:40:40.286Z,0.97
2023-11-15T11:43:18.101Z,0.63
2023-11-15T11:45:45.491Z,0.70
2023-11-15T11:48:26.210Z,0.80
2023-11-15T11:50:55.134Z,1.03
2023-11-15T11:53:24.478Z,0.77
2023-11-15T11:55:55.813Z,0.80
2023-11-15T11:58:25.484Z,0.80
2023-11-15T12:00:59.327Z,0.90
2023-11-15T12:03:25.936Z,1.07
2023-11-15T12:05:57.812Z,0.80
2023-11-15T12:08:24.403Z,0.60
2023-11-15T12:10:52.099Z,0.70
2023-11-15T12:13:18.580Z,0.70
2023-11-15T12:15:45.098Z,0.80
2023-11-15T12:18:17.338Z,0.70
2023-11-15T12:20:48.060Z,0.93
2023-11-15T12:23:18.530Z,0.77
2023-11-15T12:25:48.552Z,0.70
2023-11-15T12:28:16.153Z,0.70
2023-11-15T12:30:44.616Z,0.90
2023-11-15T12:33:12.624Z,0.80
2023-11-15T12:35:41.504Z,1.07
2023-11-15T12:38:10.386Z,1.00
2023-11-15T12:40:38.354Z,1.50
2023-11-15T12:43:24.053Z,0.80
2023-11-15T12:45:52.681Z,0.70
2023-11-15T12:48:19.881Z,1.03
2023-11-15T12:50:48.416Z,0.70
2023-11-15T12:53:18.973Z,0.90
2023-11-15T12:55:56.207Z,0.80
2023-11-15T12:58:43.516Z,0.70
2023-11-15T13:01:12.793Z,0.70
2023-11-15T13:03:40.719Z,0.80
2023-11-15T13:06:11.682Z,0.90
2023-11-15T13:08:39.268Z,1.23
2023-11-15T13:11:10.656Z,0.98
2023-11-15T13:13:37.953Z,0.70
2023-11-15T13:16:04.767Z,0.70
2023-11-15T13:18:31.385Z,0.80
2023-11-15T13:20:59.019Z,0.90
2023-11-15T13:23:26.394Z,0.70
2023-11-15T13:25:54.860Z,0.77
2023-11-15T13:28:22.063Z,1.20
2023-11-15T13:30:49.303Z,1.00
2023-11-15T13:33:19.131Z,1.10
2023-11-15T13:35:47.404Z,0.90
2023-11-15T13:38:14.161Z,0.70
2023-11-15T13:40:42.796Z,1.00
2023-11-15T13:43:09.422Z,1.00
2023-11-15T13:45:36.082Z,0.80
2023-11-15T13:48:04.044Z,1.10
2023-11-15T13:50:30.822Z,1.00
2023-11-15T13:52:57.316Z,1.13
2023-11-15T13:55:23.937Z,0.90
2023-11-15T13:57:51.985Z,0.93
2023-11-15T14:00:24.778Z,1.13
2023-11-15T14:02:52.864Z,0.93
2023-11-15T14:05:21.704Z,1.10
2023-11-15T14:07:48.354Z,1.20
2023-11-15T14:10:20.509Z,1.17
2023-11-15T14:12:48.094Z,0.93
2023-11-15T14:15:19.668Z,1.47
2023-11-15T14:17:49.780Z,1.17
2023-11-15T14:20:21.164Z,1.00
2023-11-15T14:22:48.867Z,0.90
2023-11-15T14:25:22.186Z,1.00
2023-11-15T14:27:54.363Z,1.73
2023-11-15T14:30:24.341Z,1.40
2023-11-15T14:32:52.213Z,1.33
2023-11-15T14:35:19.334Z,2.00
2023-11-15T14:37:47.883Z,1.60
2023-11-15T14:40:21.229Z,1.33
2023-11-15T14:42:48.891Z,1.40
2023-11-15T14:45:16.100Z,1.10
2023-11-15T14:47:47.102Z,1.67
2023-11-15T14:50:18.125Z,2.50
2023-11-15T14:53:04.819Z,2.47
2023-11-15T14:55:34.628Z,3.47
2023-11-15T14:58:01.549Z,2.50
2023-11-15T15:00:28.242Z,2.60
2023-11-15T15:02:55.552Z,2.30
2023-11-15T15:05:25.643Z,1.60
2023-11-15T15:07:52.481Z,1.37
2023-11-15T15:10:19.218Z,1.77
2023-11-15T15:12:46.209Z,2.20
2023-11-15T15:15:15.646Z,1.63
2023-11-15T15:17:42.193Z,1.70
2023-11-15T15:20:12.057Z,1.70
2023-11-15T15:22:38.545Z,1.80
2023-11-15T15:25:06.814Z,1.90
2023-11-15T15:27:33.360Z,2.47
2023-11-15T15:30:01.113Z,2.40
2023-11-15T15:32:28.411Z,8.00
2023-11-15T15:34:55.374Z,2.90
2023-11-15T15:37:21.901Z,3.03
2023-11-15T15:39:48.493Z,3.27
2023-11-15T15:42:15.414Z,3.40
2023-11-15T15:44:42.146Z,3.60
2023-11-15T15:47:08.731Z,2.70
2023-11-15T15:49:35.218Z,3.00
2023-11-15T15:52:02.049Z,2.30
2023-11-15T15:54:28.563Z,2.97
2023-11-15T15:56:55.327Z,3.23
2023-11-15T15:59:22.258Z,2.93
2023-11-15T16:01:49.024Z,2.53
2023-11-15T16:04:16.887Z,3.10
2023-11-15T16:06:43.659Z,3.80
2023-11-15T16:09:10.152Z,4.50
2023-11-15T16:11:36.649Z,3.13
2023-11-15T16:14:03.225Z,3.47
2023-11-15T16:16:29.728Z,3.07
2023-11-15T16:18:56.533Z,3.07
2023-11-15T16:21:23.117Z,3.20
2023-11-15T16:23:49.917Z,3.27
2023-11-15T16:26:17.877Z,3.77
2023-11-15T16:28:44.523Z,2.87
2023-11-15T16:31:11.665Z,3.53
2023-11-15T16:33:38.922Z,3.90
2023-11-15T16:36:06.071Z,3.50
2023-11-15T16:38:32.689Z,3.83
2023-11-15T16:40:59.165Z,3.57
2023-11-15T16:43:28.561Z,3.90
2023-11-15T16:45:55.110Z,4.10
2023-11-15T16:48:23.149Z,3.50
2023-11-15T16:50:50.482Z,3.80
2023-11-15T16:53:19.993Z,3.57
2023-11-15T16:55:47.179Z,3.70
2023-11-15T16:58:13.713Z,4.00
2023-11-15T17:00:43.220Z,3.80
2023-11-15T17:03:12.778Z,4.40
2023-11-15T17:05:39.445Z,8.37
2023-11-15T17:08:08.908Z,12.33
2023-11-15T17:10:38.302Z,8.87
2023-11-15T17:13:06.320Z,5.60
2023-11-15T17:15:32.866Z,5.23
2023-11-15T17:17:59.708Z,4.63
2023-11-15T17:20:26.580Z,4.40
2023-11-15T17:22:53.071Z,4.20
2023-11-15T17:25:20.482Z,4.17
2023-11-15T17:27:47.385Z,3.40
2023-11-15T17:30:14.262Z,3.63
2023-11-15T17:32:41.075Z,17.83
2023-11-15T17:35:07.774Z,11.90
2023-11-15T17:37:34.507Z,9.07
2023-11-15T17:40:01.463Z,5.70
2023-11-15T17:42:28.138Z,4.10
2023-11-15T17:44:57.284Z,4.33
2023-11-15T17:47:25.292Z,4.10
2023-11-15T17:49:52.747Z,4.17
2023-11-15T17:52:19.535Z,4.83
2023-11-15T17:54:46.188Z,3.97
2023-11-15T17:57:16.549Z,4.00
2023-11-15T17:59:43.478Z,3.90
2023-11-15T18:02:10.734Z,4.20
2023-11-15T18:04:38.217Z,3.90
2023-11-15T18:07:06.193Z,4.20
2023-11-15T18:09:34.500Z,4.53
2023-11-15T18:12:01.587Z,3.90
2023-11-15T18:14:28.503Z,3.97
2023-11-15T18:16:56.600Z,4.47
2023-11-15T18:19:24.526Z,4.77
2023-11-15T18:21:51.797Z,4.50
2023-11-15T18:24:18.705Z,5.30
2023-11-15T18:26:46.392Z,5.17
2023-11-15T18:29:13.712Z,5.60
2023-11-15T18:31:40.656Z,6.00
2023-11-15T18:34:07.418Z,5.87
2023-11-15T18:36:35.435Z,5.57
2023-11-15T18:39:03.131Z,5.27
2023-11-15T18:41:29.790Z,4.97
2023-11-15T18:43:58.045Z,4.83
2023-11-15T18:46:24.772Z,4.57
2023-11-15T18:48:51.645Z,4.07
2023-11-15T18:51:23.237Z,4.43
2023-11-15T18:53:50.804Z,4.53
2023-11-15T18:56:17.665Z,5.10
2023-11-15T18:58:45.386Z,5.07
2023-11-15T19:01:12.157Z,5.23
2023-11-15T19:03:40.328Z,5.40
2023-11-15T19:06:07.347Z,5.30
2023-11-15T19:08:34.157Z,6.07
2023-11-15T19:11:00.922Z,5.67
2023-11-15T19:13:28.257Z,6.40
2023-11-15T19:15:55.575Z,7.27
2023-11-15T19:18:22.221Z,5.90
2023-11-15T19:20:49.669Z,6.67
2023-11-15T19:23:17.704Z,6.47
2023-11-15T19:25:45.053Z,6.27
2023-11-15T19:28:11.618Z,6.07
2023-11-15T19:30:38.491Z,5.50
2023-11-15T19:33:07.290Z,6.10
2023-11-15T19:35:33.909Z,6.27
2023-11-15T19:38:01.201Z,5.53
2023-11-15T19:40:28.029Z,4.13
2023-11-15T19:42:54.708Z,4.63
2023-11-15T19:45:22.725Z,4.17
2023-11-15T19:47:49.453Z,4.27
2023-11-15T19:50:16.811Z,4.17
2023-11-15T19:52:43.672Z,3.93
2023-11-15T19:55:12.528Z,4.87
2023-11-15T19:57:40.384Z,4.43
2023-11-15T20:00:12.753Z,4.27
2023-11-15T20:02:46.213Z,4.60
2023-11-15T20:05:14.388Z,4.50
2023-11-15T20:07:40.958Z,4.77
2023-11-15T20:10:11.025Z,4.10
2023-11-15T20:12:39.636Z,3.37
2023-11-15T20:15:08.256Z,3.47
2023-11-15T20:17:35.399Z,3.13
2023-11-15T20:20:04.865Z,2.67
2023-11-15T20:22:41.551Z,2.70
2023-11-15T20:25:12.644Z,2.40
2023-11-15T20:27:39.221Z,2.30
2023-11-15T20:30:07.550Z,1.90
2023-11-15T20:32:34.296Z,2.07
2023-11-15T20:35:00.824Z,2.10
2023-11-15T20:37:27.362Z,2.20
2023-11-15T20:39:54.843Z,1.90
2023-11-15T20:42:25.115Z,2.00
2023-11-15T20:44:51.632Z,1.83
2023-11-15T20:47:20.136Z,1.87
2023-11-15T20:49:47.117Z,1.70
2023-11-15T20:52:14.627Z,2.47
2023-11-15T20:54:41.400Z,1.77
2023-11-15T20:57:08.937Z,2.00
2023-11-15T20:59:37.544Z,1.90
2023-11-15T21:02:04.471Z,1.77
2023-11-15T21:04:31.133Z,1.43
2023-11-15T21:06:59.840Z,2.10
2023-11-15T21:09:26.772Z,2.43
2023-11-15T21:11:55.200Z,2.20
2023-11-15T21:14:22.473Z,2.10
2023-11-15T21:16:49.228Z,1.90
2023-11-15T21:19:15.941Z,1.90
2023-11-15T21:21:45.870Z,3.00
2023-11-15T21:24:12.952Z,2.37
2023-11-15T21:26:41.259Z,2.80
2023-11-15T21:29:11.746Z,2.40
2023-11-15T21:31:41.192Z,2.67
2023-11-15T21:34:08.857Z,1.80
2023-11-15T21:36:39.216Z,1.90
2023-11-15T21:39:07.202Z,1.90
2023-11-15T21:41:33.898Z,2.10
2023-11-15T21:44:00.605Z,2.00
2023-11-15T21:46:29.774Z,1.87
2023-11-15T21:48:58.124Z,2.03
2023-11-15T21:51:24.905Z,1.80
2023-11-15T21:53:54.372Z,2.20
2023-11-15T21:56:21.841Z,1.87
2023-11-15T21:58:48.620Z,2.50
2023-11-15T22:01:15.567Z,2.50
2023-11-15T22:03:42.941Z,2.20
2023-11-15T22:06:09.815Z,1.97
2023-11-15T22:08:37.616Z,1.90
2023-11-15T22:11:04.758Z,2.10
2023-11-15T22:13:31.374Z,2.03
2023-11-15T22:15:58.321Z,1.97
2023-11-15T22:18:25.175Z,2.13
2023-11-15T22:20:53.237Z,2.03
2023-11-15T22:23:19.741Z,2.33
2023-11-15T22:25:47.619Z,2.37
2023-11-15T22:28:14.283Z,1.77
2023-11-15T22:30:41.116Z,2.07
2023-11-15T22:33:08.245Z,2.20
2023-11-15T22:35:35.972Z,1.90
2023-11-15T22:38:03.217Z,1.90
2023-11-15T22:40:29.757Z,1.83
2023-11-15T22:43:04.587Z,2.67
2023-11-15T22:45:31.927Z,1.87
2023-11-15T22:47:59.271Z,1.70
2023-11-15T22:50:26.518Z,1.70
2023-11-15T22:52:53.217Z,1.93
2023-11-15T22:55:19.708Z,2.03
2023-11-15T22:57:46.436Z,1.90
2023-11-15T23:00:26.305Z,2.03
2023-11-15T23:02:54.562Z,1.80
2023-11-15T23:05:21.722Z,2.10
2023-11-15T23:07:48.433Z,1.83
2023-11-15T23:10:18.877Z,2.57
2023-11-15T23:12:46.509Z,2.33
2023-11-15T23:15:13.444Z,2.07
2023-11-15T23:17:40.194Z,2.17
2023-11-15T23:20:08.075Z,2.27
2023-11-15T23:22:35.421Z,2.07
2023-11-15T23:25:02.782Z,2.23
2023-11-15T23:27:29.735Z,1.90
2023-11-15T23:29:56.289Z,2.00
2023-11-15T23:32:23.060Z,2.00
2023-11-15T23:34:49.756Z,2.00
2023-11-15T23:37:16.629Z,1.93
2023-11-15T23:39:43.157Z,2.10
2023-11-15T23:42:09.710Z,1.93
2023-11-15T23:44:36.370Z,2.20
2023-11-15T23:47:03.025Z,2.50
2023-11-15T23:49:30.514Z,1.80
2023-11-15T23:51:57.139Z,1.63
2023-11-15T23:54:23.698Z,1.63
2023-11-15T23:56:50.388Z,1.50
2023-11-15T23:59:19.797Z,1.63
